sensor_id;sensor_type;location;lat;lon;timestamp;temperature;humidity
43151;DHT22;28755;51.478;5.702;2023-08-24T00:01:06;19.40;99.90
43151;DHT22;28755;51.478;5.702;2023-08-24T00:03:32;19.30;99.90
43151;DHT22;28755;51.478;5.702;2023-08-24T00:05:58;19.30;99.90
43151;DHT22;28755;51.478;5.702;2023-08-24T00:08:23;19.30;99.90
43151;DHT22;28755;51.478;5.702;2023-08-24T00:10:49;19.30;99.90
43151;DHT22;28755;51.478;5.702;2023-08-24T00:13:15;19.30;99.90
43151;DHT22;28755;51.478;5.702;2023-08-24T00:15:41;19.20;99.90
43151;DHT22;28755;51.478;5.702;2023-08-24T00:18:07;19.30;99.90
43151;DHT22;28755;51.478;5.702;2023-08-24T00:20:33;19.30;99.90
43151;DHT22;28755;51.478;5.702;2023-08-24T00:22:59;19.30;99.90
43151;DHT22;28755;51.478;5.702;2023-08-24T00:25:25;19.20;99.90
43151;DHT22;28755;51.478;5.702;2023-08-24T00:27:54;19.10;99.90
43151;DHT22;28755;51.478;5.702;2023-08-24T00:30:21;19.10;99.90
43151;DHT22;28755;51.478;5.702;2023-08-24T00:32:46;19.10;99.90
43151;DHT22;28755;51.478;5.702;2023-08-24T00:35:12;19.10;99.90
43151;DHT22;28755;51.478;5.702;2023-08-24T00:37:38;19.10;99.90
43151;DHT22;28755;51.478;5.702;2023-08-24T00:40:05;19.10;99.90
43151;DHT22;28755;51.478;5.702;2023-08-24T00:42:38;19.10;99.90
43151;DHT22;28755;51.478;5.702;2023-08-24T00:45:05;19.00;99.90
43151;DHT22;28755;51.478;5.702;2023-08-24T00:47:31;19.00;99.90
43151;DHT22;28755;51.478;5.702;2023-08-24T00:49:57;19.10;99.90
43151;DHT22;28755;51.478;5.702;2023-08-24T00:52:25;19.00;99.90
43151;DHT22;28755;51.478;5.702;2023-08-24T00:54:50;19.00;99.90
43151;DHT22;28755;51.478;5.702;2023-08-24T00:57:17;18.90;99.90
43151;DHT22;28755;51.478;5.702;2023-08-24T00:59:42;18.90;99.90
43151;DHT22;28755;51.478;5.702;2023-08-24T01:02:08;18.90;99.90
43151;DHT22;28755;51.478;5.702;2023-08-24T01:04:34;18.90;99.90
43151;DHT22;28755;51.478;5.702;2023-08-24T01:06:59;19.00;99.90
43151;DHT22;28755;51.478;5.702;2023-08-24T01:09:25;18.90;99.90
43151;DHT22;28755;51.478;5.702;2023-08-24T01:12:02;18.90;99.90
43151;DHT22;28755;51.478;5.702;2023-08-24T01:14:47;18.80;99.90
43151;DHT22;28755;51.478;5.702;2023-08-24T01:17:18;18.90;99.90
43151;DHT22;28755;51.478;5.702;2023-08-24T01:19:47;18.80;99.90
43151;DHT22;28755;51.478;5.702;2023-08-24T01:22:44;18.80;99.90
43151;DHT22;28755;51.478;5.702;2023-08-24T01:25:35;18.80;99.90
43151;DHT22;28755;51.478;5.702;2023-08-24T01:28:03;18.80;99.90
43151;DHT22;28755;51.478;5.702;2023-08-24T01:30:31;18.70;99.90
43151;DHT22;28755;51.478;5.702;2023-08-24T01:32:56;18.70;99.90
43151;DHT22;28755;51.478;5.702;2023-08-24T01:35:22;18.70;99.90
43151;DHT22;28755;51.478;5.702;2023-08-24T01:37:47;18.70;99.90
43151;DHT22;28755;51.478;5.702;2023-08-24T01:40:27;18.60;99.90
43151;DHT22;28755;51.478;5.702;2023-08-24T01:42:59;18.60;99.90
43151;DHT22;28755;51.478;5.702;2023-08-24T01:45:30;18.60;99.90
43151;DHT22;28755;51.478;5.702;2023-08-24T01:47:57;18.60;99.90
43151;DHT22;28755;51.478;5.702;2023-08-24T01:50:24;18.60;99.90
43151;DHT22;28755;51.478;5.702;2023-08-24T01:52:50;18.60;99.90
43151;DHT22;28755;51.478;5.702;2023-08-24T01:55:20;18.70;99.90
43151;DHT22;28755;51.478;5.702;2023-08-24T01:57:46;18.70;99.90
43151;DHT22;28755;51.478;5.702;2023-08-24T02:00:12;18.60;99.90
43151;DHT22;28755;51.478;5.702;2023-08-24T02:02:38;18.70;99.90
43151;DHT22;28755;51.478;5.702;2023-08-24T02:05:03;18.70;99.90
43151;DHT22;28755;51.478;5.702;2023-08-24T02:07:29;18.70;99.90
43151;DHT22;28755;51.478;5.702;2023-08-24T02:09:55;18.70;99.90
43151;DHT22;28755;51.478;5.702;2023-08-24T02:12:21;18.70;99.90
43151;DHT22;28755;51.478;5.702;2023-08-24T02:14:46;18.70;99.90
43151;DHT22;28755;51.478;5.702;2023-08-24T02:17:12;18.70;99.90
43151;DHT22;28755;51.478;5.702;2023-08-24T02:19:37;18.70;99.90
43151;DHT22;28755;51.478;5.702;2023-08-24T02:22:03;18.70;99.90
43151;DHT22;28755;51.478;5.702;2023-08-24T02:24:29;18.70;99.90
43151;DHT22;28755;51.478;5.702;2023-08-24T02:26:54;18.70;99.90
43151;DHT22;28755;51.478;5.702;2023-08-24T02:29:20;18.70;99.90
43151;DHT22;28755;51.478;5.702;2023-08-24T02:31:46;18.70;99.90
43151;DHT22;28755;51.478;5.702;2023-08-24T02:34:11;18.70;99.90
43151;DHT22;28755;51.478;5.702;2023-08-24T02:36:37;18.80;99.90
43151;DHT22;28755;51.478;5.702;2023-08-24T02:39:02;18.70;99.90
43151;DHT22;28755;51.478;5.702;2023-08-24T02:41:28;18.70;99.90
43151;DHT22;28755;51.478;5.702;2023-08-24T02:43:53;18.70;99.90
43151;DHT22;28755;51.478;5.702;2023-08-24T02:46:20;18.70;99.90
43151;DHT22;28755;51.478;5.702;2023-08-24T02:48:46;18.70;99.90
43151;DHT22;28755;51.478;5.702;2023-08-24T02:51:13;18.70;99.90
43151;DHT22;28755;51.478;5.702;2023-08-24T02:53:39;18.70;99.90
43151;DHT22;28755;51.478;5.702;2023-08-24T02:56:04;18.70;99.90
43151;DHT22;28755;51.478;5.702;2023-08-24T02:58:30;18.80;99.90
43151;DHT22;28755;51.478;5.702;2023-08-24T03:00:56;18.70;99.90
43151;DHT22;28755;51.478;5.702;2023-08-24T03:03:22;18.70;99.90
43151;DHT22;28755;51.478;5.702;2023-08-24T03:05:56;18.70;99.90
43151;DHT22;28755;51.478;5.702;2023-08-24T03:08:23;18.80;99.90
43151;DHT22;28755;51.478;5.702;2023-08-24T03:10:49;18.70;99.90
43151;DHT22;28755;51.478;5.702;2023-08-24T03:13:14;18.70;99.90
43151;DHT22;28755;51.478;5.702;2023-08-24T03:15:40;18.70;99.90
43151;DHT22;28755;51.478;5.702;2023-08-24T03:18:05;18.70;99.90
43151;DHT22;28755;51.478;5.702;2023-08-24T03:20:31;18.60;99.90
43151;DHT22;28755;51.478;5.702;2023-08-24T03:22:57;18.60;99.90
43151;DHT22;28755;51.478;5.702;2023-08-24T03:25:23;18.70;99.90
43151;DHT22;28755;51.478;5.702;2023-08-24T03:27:49;18.60;99.90
43151;DHT22;28755;51.478;5.702;2023-08-24T03:30:14;18.50;99.90
43151;DHT22;28755;51.478;5.702;2023-08-24T03:32:40;18.50;99.90
43151;DHT22;28755;51.478;5.702;2023-08-24T03:35:07;18.40;99.90
43151;DHT22;28755;51.478;5.702;2023-08-24T03:37:32;18.50;99.90
43151;DHT22;28755;51.478;5.702;2023-08-24T03:39:58;18.60;99.90
43151;DHT22;28755;51.478;5.702;2023-08-24T03:42:23;18.50;99.90
43151;DHT22;28755;51.478;5.702;2023-08-24T03:44:49;18.50;99.90
43151;DHT22;28755;51.478;5.702;2023-08-24T03:47:15;18.60;99.90
43151;DHT22;28755;51.478;5.702;2023-08-24T03:49:44;18.60;99.90
43151;DHT22;28755;51.478;5.702;2023-08-24T03:52:09;18.50;99.90
43151;DHT22;28755;51.478;5.702;2023-08-24T03:54:35;18.60;99.90
43151;DHT22;28755;51.478;5.702;2023-08-24T03:57:01;18.60;99.90
43151;DHT22;28755;51.478;5.702;2023-08-24T03:59:27;18.70;99.90
43151;DHT22;28755;51.478;5.702;2023-08-24T04:01:52;18.70;99.90
43151;DHT22;28755;51.478;5.702;2023-08-24T04:04:18;18.70;99.90
43151;DHT22;28755;51.478;5.702;2023-08-24T04:06:44;18.70;99.90
43151;DHT22;28755;51.478;5.702;2023-08-24T04:09:09;18.70;99.90
43151;DHT22;28755;51.478;5.702;2023-08-24T04:11:35;18.80;99.90
43151;DHT22;28755;51.478;5.702;2023-08-24T04:14:01;18.80;99.90
43151;DHT22;28755;51.478;5.702;2023-08-24T04:16:27;18.80;99.90
43151;DHT22;28755;51.478;5.702;2023-08-24T04:18:52;18.80;99.90
43151;DHT22;28755;51.478;5.702;2023-08-24T04:21:18;18.90;99.90
43151;DHT22;28755;51.478;5.702;2023-08-24T04:23:43;18.90;99.90
43151;DHT22;28755;51.478;5.702;2023-08-24T04:26:13;18.90;99.90
43151;DHT22;28755;51.478;5.702;2023-08-24T04:28:39;19.00;99.90
43151;DHT22;28755;51.478;5.702;2023-08-24T04:31:04;19.00;99.90
43151;DHT22;28755;51.478;5.702;2023-08-24T04:33:30;19.10;99.90
43151;DHT22;28755;51.478;5.702;2023-08-24T04:35:56;19.00;99.90
43151;DHT22;28755;51.478;5.702;2023-08-24T04:38:22;19.00;99.90
43151;DHT22;28755;51.478;5.702;2023-08-24T04:40:52;18.90;99.90
43151;DHT22;28755;51.478;5.702;2023-08-24T04:43:19;18.90;99.90
43151;DHT22;28755;51.478;5.702;2023-08-24T04:45:51;18.90;99.90
43151;DHT22;28755;51.478;5.702;2023-08-24T04:48:24;18.90;99.90
43151;DHT22;28755;51.478;5.702;2023-08-24T04:50:50;19.00;99.90
43151;DHT22;28755;51.478;5.702;2023-08-24T04:53:17;18.90;99.90
43151;DHT22;28755;51.478;5.702;2023-08-24T04:55:43;19.00;99.90
43151;DHT22;28755;51.478;5.702;2023-08-24T04:58:10;18.90;99.90
43151;DHT22;28755;51.478;5.702;2023-08-24T05:00:36;18.90;99.90
43151;DHT22;28755;51.478;5.702;2023-08-24T05:03:06;18.90;99.90
43151;DHT22;28755;51.478;5.702;2023-08-24T05:05:33;18.90;99.90
43151;DHT22;28755;51.478;5.702;2023-08-24T05:07:59;18.90;99.90
43151;DHT22;28755;51.478;5.702;2023-08-24T05:10:26;18.90;99.90
43151;DHT22;28755;51.478;5.702;2023-08-24T05:12:51;18.90;99.90
43151;DHT22;28755;51.478;5.702;2023-08-24T05:15:17;18.90;99.90
43151;DHT22;28755;51.478;5.702;2023-08-24T05:17:43;18.90;99.90
43151;DHT22;28755;51.478;5.702;2023-08-24T05:20:09;18.90;99.90
43151;DHT22;28755;51.478;5.702;2023-08-24T05:22:38;18.90;99.90
43151;DHT22;28755;51.478;5.702;2023-08-24T05:25:04;18.90;99.90
43151;DHT22;28755;51.478;5.702;2023-08-24T05:27:30;18.90;99.90
43151;DHT22;28755;51.478;5.702;2023-08-24T05:29:56;18.90;99.90
43151;DHT22;28755;51.478;5.702;2023-08-24T05:32:21;19.00;99.90
43151;DHT22;28755;51.478;5.702;2023-08-24T05:34:47;19.00;99.90
43151;DHT22;28755;51.478;5.702;2023-08-24T05:37:13;19.00;99.90
43151;DHT22;28755;51.478;5.702;2023-08-24T05:39:38;19.00;99.90
43151;DHT22;28755;51.478;5.702;2023-08-24T05:42:05;19.00;99.90
43151;DHT22;28755;51.478;5.702;2023-08-24T05:44:30;19.10;99.90
43151;DHT22;28755;51.478;5.702;2023-08-24T05:46:56;19.00;99.90
43151;DHT22;28755;51.478;5.702;2023-08-24T05:49:21;19.10;99.90
43151;DHT22;28755;51.478;5.702;2023-08-24T05:51:50;19.00;99.90
43151;DHT22;28755;51.478;5.702;2023-08-24T05:54:16;19.00;99.90
43151;DHT22;28755;51.478;5.702;2023-08-24T05:56:47;19.00;99.90
43151;DHT22;28755;51.478;5.702;2023-08-24T05:59:13;19.00;99.90
43151;DHT22;28755;51.478;5.702;2023-08-24T06:01:39;19.10;99.90
43151;DHT22;28755;51.478;5.702;2023-08-24T06:04:05;19.30;99.90
43151;DHT22;28755;51.478;5.702;2023-08-24T06:06:31;19.40;99.90
43151;DHT22;28755;51.478;5.702;2023-08-24T06:08:57;19.50;99.90
43151;DHT22;28755;51.478;5.702;2023-08-24T06:11:22;19.60;99.90
43151;DHT22;28755;51.478;5.702;2023-08-24T06:13:51;19.70;99.90
43151;DHT22;28755;51.478;5.702;2023-08-24T06:16:19;19.80;99.90
43151;DHT22;28755;51.478;5.702;2023-08-24T06:18:45;19.80;99.90
43151;DHT22;28755;51.478;5.702;2023-08-24T06:21:10;19.90;99.90
43151;DHT22;28755;51.478;5.702;2023-08-24T06:23:36;20.10;99.90
43151;DHT22;28755;51.478;5.702;2023-08-24T06:26:01;20.10;99.90
43151;DHT22;28755;51.478;5.702;2023-08-24T06:28:27;20.10;99.90
43151;DHT22;28755;51.478;5.702;2023-08-24T06:30:55;20.20;99.90
43151;DHT22;28755;51.478;5.702;2023-08-24T06:33:21;20.20;99.90
43151;DHT22;28755;51.478;5.702;2023-08-24T06:35:46;20.40;99.90
43151;DHT22;28755;51.478;5.702;2023-08-24T06:38:15;20.50;99.90
43151;DHT22;28755;51.478;5.702;2023-08-24T06:40:41;20.80;99.90
43151;DHT22;28755;51.478;5.702;2023-08-24T06:43:06;20.90;99.90
43151;DHT22;28755;51.478;5.702;2023-08-24T06:45:35;21.00;99.90
43151;DHT22;28755;51.478;5.702;2023-08-24T06:48:00;21.20;99.90
43151;DHT22;28755;51.478;5.702;2023-08-24T06:50:26;21.30;99.90
43151;DHT22;28755;51.478;5.702;2023-08-24T06:52:51;21.40;99.90
43151;DHT22;28755;51.478;5.702;2023-08-24T06:55:17;21.50;99.90
43151;DHT22;28755;51.478;5.702;2023-08-24T06:57:48;21.70;99.90
43151;DHT22;28755;51.478;5.702;2023-08-24T07:00:14;21.80;99.90
43151;DHT22;28755;51.478;5.702;2023-08-24T07:02:40;21.90;99.90
43151;DHT22;28755;51.478;5.702;2023-08-24T07:05:06;21.90;99.90
43151;DHT22;28755;51.478;5.702;2023-08-24T07:07:34;22.10;99.90
43151;DHT22;28755;51.478;5.702;2023-08-24T07:09:59;22.30;99.90
43151;DHT22;28755;51.478;5.702;2023-08-24T07:12:25;22.40;99.90
43151;DHT22;28755;51.478;5.702;2023-08-24T07:14:51;22.50;99.90
43151;DHT22;28755;51.478;5.702;2023-08-24T07:17:16;22.60;99.90
43151;DHT22;28755;51.478;5.702;2023-08-24T07:19:42;22.70;99.90
43151;DHT22;28755;51.478;5.702;2023-08-24T07:22:07;22.80;99.90
43151;DHT22;28755;51.478;5.702;2023-08-24T07:24:33;23.00;99.90
43151;DHT22;28755;51.478;5.702;2023-08-24T07:27:01;23.10;99.90
43151;DHT22;28755;51.478;5.702;2023-08-24T07:29:29;23.40;99.90
43151;DHT22;28755;51.478;5.702;2023-08-24T07:31:55;23.60;99.90
43151;DHT22;28755;51.478;5.702;2023-08-24T07:34:20;23.70;99.90
43151;DHT22;28755;51.478;5.702;2023-08-24T07:36:48;23.80;99.90
43151;DHT22;28755;51.478;5.702;2023-08-24T07:39:14;24.10;99.90
43151;DHT22;28755;51.478;5.702;2023-08-24T07:41:41;24.20;99.90
43151;DHT22;28755;51.478;5.702;2023-08-24T07:44:07;24.40;99.90
43151;DHT22;28755;51.478;5.702;2023-08-24T07:46:32;24.60;99.90
43151;DHT22;28755;51.478;5.702;2023-08-24T07:48:58;24.90;99.90
43151;DHT22;28755;51.478;5.702;2023-08-24T07:51:24;25.00;99.90
43151;DHT22;28755;51.478;5.702;2023-08-24T07:53:49;25.30;99.90
43151;DHT22;28755;51.478;5.702;2023-08-24T07:56:17;25.50;99.90
43151;DHT22;28755;51.478;5.702;2023-08-24T07:58:43;25.60;99.90
43151;DHT22;28755;51.478;5.702;2023-08-24T08:01:09;25.60;99.90
43151;DHT22;28755;51.478;5.702;2023-08-24T08:03:35;25.70;99.90
43151;DHT22;28755;51.478;5.702;2023-08-24T08:06:01;25.60;99.90
43151;DHT22;28755;51.478;5.702;2023-08-24T08:08:27;25.90;99.90
43151;DHT22;28755;51.478;5.702;2023-08-24T08:10:59;26.30;99.90
43151;DHT22;28755;51.478;5.702;2023-08-24T08:13:26;26.50;99.90
43151;DHT22;28755;51.478;5.702;2023-08-24T08:15:52;26.90;99.90
43151;DHT22;28755;51.478;5.702;2023-08-24T08:18:17;27.00;99.90
43151;DHT22;28755;51.478;5.702;2023-08-24T08:20:43;27.20;99.90
43151;DHT22;28755;51.478;5.702;2023-08-24T08:23:08;27.50;99.90
43151;DHT22;28755;51.478;5.702;2023-08-24T08:25:34;27.90;99.90
43151;DHT22;28755;51.478;5.702;2023-08-24T08:27:59;28.30;99.90
43151;DHT22;28755;51.478;5.702;2023-08-24T08:30:25;28.60;99.90
43151;DHT22;28755;51.478;5.702;2023-08-24T08:32:51;28.70;99.90
43151;DHT22;28755;51.478;5.702;2023-08-24T08:35:18;28.90;99.90
43151;DHT22;28755;51.478;5.702;2023-08-24T08:37:44;29.00;99.90
43151;DHT22;28755;51.478;5.702;2023-08-24T08:40:10;29.10;99.90
43151;DHT22;28755;51.478;5.702;2023-08-24T08:42:37;29.40;99.90
43151;DHT22;28755;51.478;5.702;2023-08-24T08:45:04;29.60;99.90
43151;DHT22;28755;51.478;5.702;2023-08-24T08:47:33;29.70;99.90
43151;DHT22;28755;51.478;5.702;2023-08-24T08:50:00;29.70;99.90
43151;DHT22;28755;51.478;5.702;2023-08-24T08:52:28;29.70;99.90
43151;DHT22;28755;51.478;5.702;2023-08-24T08:54:53;29.80;99.90
43151;DHT22;28755;51.478;5.702;2023-08-24T08:57:21;30.20;99.90
43151;DHT22;28755;51.478;5.702;2023-08-24T08:59:48;30.40;99.90
43151;DHT22;28755;51.478;5.702;2023-08-24T09:02:19;30.40;99.90
43151;DHT22;28755;51.478;5.702;2023-08-24T09:04:45;30.10;99.90
43151;DHT22;28755;51.478;5.702;2023-08-24T09:07:16;30.00;99.90
43151;DHT22;28755;51.478;5.702;2023-08-24T09:09:42;30.10;99.90
43151;DHT22;28755;51.478;5.702;2023-08-24T09:12:08;30.40;99.90
43151;DHT22;28755;51.478;5.702;2023-08-24T09:14:34;30.30;99.90
43151;DHT22;28755;51.478;5.702;2023-08-24T09:17:00;30.00;99.90
43151;DHT22;28755;51.478;5.702;2023-08-24T09:19:30;30.20;99.90
43151;DHT22;28755;51.478;5.702;2023-08-24T09:22:00;30.30;99.90
43151;DHT22;28755;51.478;5.702;2023-08-24T09:24:36;30.50;99.90
43151;DHT22;28755;51.478;5.702;2023-08-24T09:27:15;30.60;99.90
43151;DHT22;28755;51.478;5.702;2023-08-24T09:29:48;30.60;99.90
43151;DHT22;28755;51.478;5.702;2023-08-24T09:32:15;30.40;99.90
43151;DHT22;28755;51.478;5.702;2023-08-24T09:34:41;30.50;99.90
43151;DHT22;28755;51.478;5.702;2023-08-24T09:37:14;30.60;99.90
43151;DHT22;28755;51.478;5.702;2023-08-24T09:39:40;30.90;99.90
43151;DHT22;28755;51.478;5.702;2023-08-24T09:42:06;30.90;99.90
43151;DHT22;28755;51.478;5.702;2023-08-24T09:44:31;31.00;99.90
43151;DHT22;28755;51.478;5.702;2023-08-24T09:46:57;30.90;99.90
43151;DHT22;28755;51.478;5.702;2023-08-24T09:49:23;30.80;99.90
43151;DHT22;28755;51.478;5.702;2023-08-24T09:51:48;31.00;99.90
43151;DHT22;28755;51.478;5.702;2023-08-24T09:54:16;31.10;99.90
43151;DHT22;28755;51.478;5.702;2023-08-24T09:56:42;31.00;99.90
43151;DHT22;28755;51.478;5.702;2023-08-24T09:59:12;30.60;99.90
43151;DHT22;28755;51.478;5.702;2023-08-24T10:01:42;30.60;99.90
43151;DHT22;28755;51.478;5.702;2023-08-24T10:04:09;30.40;99.90
43151;DHT22;28755;51.478;5.702;2023-08-24T10:06:36;30.20;99.90
43151;DHT22;28755;51.478;5.702;2023-08-24T10:09:03;30.10;99.90
43151;DHT22;28755;51.478;5.702;2023-08-24T10:11:36;29.60;99.90
43151;DHT22;28755;51.478;5.702;2023-08-24T10:14:21;29.50;99.90
43151;DHT22;28755;51.478;5.702;2023-08-24T10:16:50;29.20;99.90
43151;DHT22;28755;51.478;5.702;2023-08-24T10:19:17;29.00;99.90
43151;DHT22;28755;51.478;5.702;2023-08-24T10:21:44;28.80;99.90
43151;DHT22;28755;51.478;5.702;2023-08-24T10:24:12;28.50;99.90
43151;DHT22;28755;51.478;5.702;2023-08-24T10:26:39;28.40;99.90
43151;DHT22;28755;51.478;5.702;2023-08-24T10:29:09;28.20;99.90
43151;DHT22;28755;51.478;5.702;2023-08-24T10:31:35;27.90;99.90
43151;DHT22;28755;51.478;5.702;2023-08-24T10:34:03;27.80;99.90
43151;DHT22;28755;51.478;5.702;2023-08-24T10:36:30;27.70;99.90
43151;DHT22;28755;51.478;5.702;2023-08-24T10:38:56;27.50;99.90
43151;DHT22;28755;51.478;5.702;2023-08-24T10:41:27;27.30;99.90
43151;DHT22;28755;51.478;5.702;2023-08-24T10:44:04;27.30;99.90
43151;DHT22;28755;51.478;5.702;2023-08-24T10:46:34;27.00;99.90
43151;DHT22;28755;51.478;5.702;2023-08-24T10:49:03;26.90;99.90
43151;DHT22;28755;51.478;5.702;2023-08-24T10:51:28;26.80;99.90
43151;DHT22;28755;51.478;5.702;2023-08-24T10:53:59;26.60;99.90
43151;DHT22;28755;51.478;5.702;2023-08-24T10:56:38;26.50;99.90
43151;DHT22;28755;51.478;5.702;2023-08-24T10:59:15;26.40;99.90
43151;DHT22;28755;51.478;5.702;2023-08-24T11:01:43;26.40;99.90
43151;DHT22;28755;51.478;5.702;2023-08-24T11:04:10;26.30;99.90
43151;DHT22;28755;51.478;5.702;2023-08-24T11:06:55;26.30;99.90
43151;DHT22;28755;51.478;5.702;2023-08-24T11:09:21;26.30;99.90
43151;DHT22;28755;51.478;5.702;2023-08-24T11:12:02;26.30;99.90
43151;DHT22;28755;51.478;5.702;2023-08-24T11:14:29;26.30;99.90
43151;DHT22;28755;51.478;5.702;2023-08-24T11:17:18;26.20;99.90
43151;DHT22;28755;51.478;5.702;2023-08-24T11:19:53;26.30;99.90
43151;DHT22;28755;51.478;5.702;2023-08-24T11:22:22;26.50;99.90
43151;DHT22;28755;51.478;5.702;2023-08-24T11:24:48;26.40;99.90
43151;DHT22;28755;51.478;5.702;2023-08-24T11:27:14;26.40;99.90
43151;DHT22;28755;51.478;5.702;2023-08-24T11:29:41;26.50;99.90
43151;DHT22;28755;51.478;5.702;2023-08-24T11:32:07;26.70;99.90
43151;DHT22;28755;51.478;5.702;2023-08-24T11:34:34;26.60;99.90
43151;DHT22;28755;51.478;5.702;2023-08-24T11:37:01;26.60;99.90
43151;DHT22;28755;51.478;5.702;2023-08-24T11:39:27;26.40;99.90
43151;DHT22;28755;51.478;5.702;2023-08-24T11:42:01;26.20;99.90
43151;DHT22;28755;51.478;5.702;2023-08-24T11:44:28;26.00;99.90
43151;DHT22;28755;51.478;5.702;2023-08-24T11:46:57;26.00;99.90
43151;DHT22;28755;51.478;5.702;2023-08-24T11:49:23;25.80;99.90
43151;DHT22;28755;51.478;5.702;2023-08-24T11:51:50;25.70;99.90
43151;DHT22;28755;51.478;5.702;2023-08-24T11:54:18;25.70;99.90
43151;DHT22;28755;51.478;5.702;2023-08-24T11:56:44;25.70;99.90
43151;DHT22;28755;51.478;5.702;2023-08-24T11:59:16;25.70;99.90
43151;DHT22;28755;51.478;5.702;2023-08-24T12:01:41;25.70;99.90
43151;DHT22;28755;51.478;5.702;2023-08-24T12:04:08;25.70;99.90
43151;DHT22;28755;51.478;5.702;2023-08-24T12:06:34;25.70;99.90
43151;DHT22;28755;51.478;5.702;2023-08-24T12:08:59;25.70;99.90
43151;DHT22;28755;51.478;5.702;2023-08-24T12:11:26;25.70;99.90
43151;DHT22;28755;51.478;5.702;2023-08-24T12:13:54;25.60;99.90
43151;DHT22;28755;51.478;5.702;2023-08-24T12:16:21;25.60;99.90
43151;DHT22;28755;51.478;5.702;2023-08-24T12:18:57;25.70;99.90
43151;DHT22;28755;51.478;5.702;2023-08-24T12:21:25;25.60;99.90
43151;DHT22;28755;51.478;5.702;2023-08-24T12:24:05;25.90;99.90
43151;DHT22;28755;51.478;5.702;2023-08-24T12:26:32;26.30;99.90
43151;DHT22;28755;51.478;5.702;2023-08-24T12:29:03;26.70;99.90
43151;DHT22;28755;51.478;5.702;2023-08-24T12:31:29;26.60;99.90
43151;DHT22;28755;51.478;5.702;2023-08-24T12:34:05;26.70;99.90
43151;DHT22;28755;51.478;5.702;2023-08-24T12:36:36;26.50;99.90
43151;DHT22;28755;51.478;5.702;2023-08-24T12:39:04;26.50;99.90
43151;DHT22;28755;51.478;5.702;2023-08-24T12:41:30;26.30;99.90
43151;DHT22;28755;51.478;5.702;2023-08-24T12:43:56;26.20;99.90
43151;DHT22;28755;51.478;5.702;2023-08-24T12:46:22;26.10;99.90
43151;DHT22;28755;51.478;5.702;2023-08-24T12:48:47;26.30;99.90
43151;DHT22;28755;51.478;5.702;2023-08-24T12:51:13;26.30;99.90
43151;DHT22;28755;51.478;5.702;2023-08-24T12:53:39;26.20;99.90
43151;DHT22;28755;51.478;5.702;2023-08-24T12:56:04;26.00;99.90
43151;DHT22;28755;51.478;5.702;2023-08-24T12:58:30;25.70;99.90
43151;DHT22;28755;51.478;5.702;2023-08-24T13:00:56;25.70;99.90
43151;DHT22;28755;51.478;5.702;2023-08-24T13:03:21;25.70;99.90
43151;DHT22;28755;51.478;5.702;2023-08-24T13:05:47;25.80;99.90
43151;DHT22;28755;51.478;5.702;2023-08-24T13:08:13;25.90;99.90
43151;DHT22;28755;51.478;5.702;2023-08-24T13:10:38;25.80;99.90
43151;DHT22;28755;51.478;5.702;2023-08-24T13:13:04;25.60;99.90
43151;DHT22;28755;51.478;5.702;2023-08-24T13:15:30;25.50;99.90
43151;DHT22;28755;51.478;5.702;2023-08-24T13:17:56;25.50;99.90
43151;DHT22;28755;51.478;5.702;2023-08-24T13:20:24;25.50;99.90
43151;DHT22;28755;51.478;5.702;2023-08-24T13:22:52;25.50;99.90
43151;DHT22;28755;51.478;5.702;2023-08-24T13:25:18;25.50;99.90
43151;DHT22;28755;51.478;5.702;2023-08-24T13:27:43;25.30;99.90
43151;DHT22;28755;51.478;5.702;2023-08-24T13:30:09;25.40;99.90
43151;DHT22;28755;51.478;5.702;2023-08-24T13:32:35;25.30;99.90
43151;DHT22;28755;51.478;5.702;2023-08-24T13:35:01;25.30;99.90
43151;DHT22;28755;51.478;5.702;2023-08-24T13:37:27;25.20;99.90
43151;DHT22;28755;51.478;5.702;2023-08-24T13:39:52;25.20;99.90
43151;DHT22;28755;51.478;5.702;2023-08-24T13:42:18;25.30;99.90
43151;DHT22;28755;51.478;5.702;2023-08-24T13:44:47;25.20;99.90
43151;DHT22;28755;51.478;5.702;2023-08-24T13:47:12;25.10;99.90
43151;DHT22;28755;51.478;5.702;2023-08-24T13:49:38;25.20;99.90
43151;DHT22;28755;51.478;5.702;2023-08-24T13:52:04;25.10;99.90
43151;DHT22;28755;51.478;5.702;2023-08-24T13:54:29;25.00;99.90
43151;DHT22;28755;51.478;5.702;2023-08-24T13:56:56;24.90;99.90
43151;DHT22;28755;51.478;5.702;2023-08-24T13:59:21;24.90;99.90
43151;DHT22;28755;51.478;5.702;2023-08-24T14:01:47;24.80;99.90
43151;DHT22;28755;51.478;5.702;2023-08-24T14:04:13;24.80;99.90
43151;DHT22;28755;51.478;5.702;2023-08-24T14:06:39;24.70;99.90
43151;DHT22;28755;51.478;5.702;2023-08-24T14:09:05;24.70;99.90
43151;DHT22;28755;51.478;5.702;2023-08-24T14:11:31;24.70;99.90
43151;DHT22;28755;51.478;5.702;2023-08-24T14:13:58;24.70;99.90
43151;DHT22;28755;51.478;5.702;2023-08-24T14:16:24;24.60;99.90
43151;DHT22;28755;51.478;5.702;2023-08-24T14:18:51;24.60;99.90
43151;DHT22;28755;51.478;5.702;2023-08-24T14:21:17;24.50;99.90
43151;DHT22;28755;51.478;5.702;2023-08-24T14:23:43;24.60;99.90
43151;DHT22;28755;51.478;5.702;2023-08-24T14:26:10;24.50;99.90
43151;DHT22;28755;51.478;5.702;2023-08-24T14:28:50;24.40;99.90
43151;DHT22;28755;51.478;5.702;2023-08-24T14:31:19;24.40;99.90
43151;DHT22;28755;51.478;5.702;2023-08-24T14:33:44;24.40;99.90
43151;DHT22;28755;51.478;5.702;2023-08-24T14:36:10;24.30;99.90
43151;DHT22;28755;51.478;5.702;2023-08-24T14:38:40;24.30;99.90
43151;DHT22;28755;51.478;5.702;2023-08-24T14:41:08;24.30;99.90
43151;DHT22;28755;51.478;5.702;2023-08-24T14:43:34;24.10;99.90
43151;DHT22;28755;51.478;5.702;2023-08-24T14:45:59;24.00;99.90
43151;DHT22;28755;51.478;5.702;2023-08-24T14:48:25;23.90;99.90
43151;DHT22;28755;51.478;5.702;2023-08-24T14:50:51;23.90;99.90
43151;DHT22;28755;51.478;5.702;2023-08-24T14:53:16;23.90;99.90
43151;DHT22;28755;51.478;5.702;2023-08-24T14:55:42;23.90;99.90
43151;DHT22;28755;51.478;5.702;2023-08-24T14:58:08;23.80;99.90
43151;DHT22;28755;51.478;5.702;2023-08-24T15:00:34;23.80;99.90
43151;DHT22;28755;51.478;5.702;2023-08-24T15:03:00;23.90;99.90
43151;DHT22;28755;51.478;5.702;2023-08-24T15:05:25;23.90;99.90
43151;DHT22;28755;51.478;5.702;2023-08-24T15:07:51;23.90;99.90
43151;DHT22;28755;51.478;5.702;2023-08-24T15:10:17;23.90;99.90
43151;DHT22;28755;51.478;5.702;2023-08-24T15:12:46;23.70;99.90
43151;DHT22;28755;51.478;5.702;2023-08-24T15:15:15;23.70;99.90
43151;DHT22;28755;51.478;5.702;2023-08-24T15:17:43;23.70;99.90
43151;DHT22;28755;51.478;5.702;2023-08-24T15:20:10;23.70;99.90
43151;DHT22;28755;51.478;5.702;2023-08-24T15:22:36;23.70;99.90
43151;DHT22;28755;51.478;5.702;2023-08-24T15:25:02;23.60;99.90
43151;DHT22;28755;51.478;5.702;2023-08-24T15:27:28;23.60;99.90
43151;DHT22;28755;51.478;5.702;2023-08-24T15:29:54;23.60;99.90